Arendonk, Belgium
Current Conditions -  °F | °C
As of 9:14 AM on Thursday 29 Jan 2015 (Local Time) from EHEH Reporting Station
Broken Clouds Broken Clouds  
Wind Chill: 25°   Ceiling: 1900
Heat Index: 36°   Visibility: 6mi
Dew Point: 32°   Wind: 18mph
Humidity: 87%   Direction: 220°SW
Pressure: 29.21"   Gusts: NA
Location:  51.32°N, 5.08°E
Report Text: EHEH 290814Z AUTO 22016KT 9999 SCT015 BKN019 02/M00 Q0989 WHT 22015KT 9999 SCT030 TEMPO 24018G28KT 4000 SHRAGS -SHRASN FEW010 SCT020CB BKN030
Loading
Personal Weather Stations






























Interactive Weather Map New forecast layout! Learn more

10-Day Weather Forecast

Advertisements
Track Severe Weather on mobile